Azalea Park, Florida
Current Conditions -  °F | °C
As of 1:53 PM on Thursday 18 Dec 2014 (Local Time) from KORL Reporting Station
Clear Clear  
Wind Chill: 69°   Ceiling: Unl
Heat Index: 69°   Visibility: 10mi
Dew Point: 45°   Wind: 5mph
Humidity: 42%   Direction: 330°NNW
Pressure: 30.11"   Gusts: NA
Location:  28.5525°N, 81.3003°W
Report Text: KORL 181853Z 33004KT 10SM CLR 21/07 A3011 RMK AO2 SLP200 T02060072
Loading
Personal Weather Stations






























Interactive Weather Map New forecast layout! Learn more

10-Day Weather Forecast

Advertisements
Track Severe Weather on mobile